Time,TemperatureF,DewpointF,PressureIn,WindDirection,WindDirectionDegrees,WindSpeedMPH,WindSpeedGustMPH,Humidity,HourlyPrecipIn,Conditions,Clouds,dailyrainin,SolarRadiationWatts/m^2,SoftwareType,DateUTC
2013-04-29 00:21:00,71.0,25.0,29.93,West,276,22.0,29.0,18,0.00,,,-99.99,0.000000,,2013-04-29 07:21:00,
2013-04-29 00:32:00,71.0,25.0,29.93,West,276,22.0,29.0,18,0.00,,,-99.99,0.000000,,2013-04-29 07:32:00,
2013-04-29 00:41:00,71.0,25.0,29.93,West,276,22.0,29.0,18,0.00,,,-99.99,0.000000,,2013-04-29 07:41:00,
2013-04-29 00:52:00,71.0,25.0,29.93,West,276,22.0,29.0,18,0.00,,,-99.99,0.000000,,2013-04-29 07:52:00,
2013-04-29 01:21:00,72.0,27.0,29.93,West,280,23.0,31.0,19,0.00,,,0.00,0.000000,,2013-04-29 08:21:00,
2013-04-29 01:31:00,72.0,27.0,29.93,West,280,23.0,31.0,19,0.00,,,0.00,0.000000,,2013-04-29 08:31:00,
2013-04-29 01:42:00,72.0,27.0,29.93,West,280,23.0,31.0,19,0.00,,,0.00,0.000000,,2013-04-29 08:42:00,
2013-04-29 01:51:00,72.0,27.0,29.93,West,280,23.0,31.0,19,0.00,,,0.00,0.000000,,2013-04-29 08:51:00,
2013-04-29 02:21:00,71.0,29.0,29.91,West,274,19.0,32.0,21,0.00,,,0.00,0.000000,,2013-04-29 09:21:00,
2013-04-29 02:32:00,71.0,29.0,29.91,West,274,19.0,32.0,21,0.00,,,0.00,0.000000,,2013-04-29 09:32:00,
2013-04-29 02:42:00,71.0,29.0,29.91,West,274,19.0,32.0,21,0.00,,,0.00,0.000000,,2013-04-29 09:42:00,
2013-04-29 02:52:00,71.0,29.0,29.91,West,274,19.0,32.0,21,0.00,,,0.00,0.000000,,2013-04-29 09:52:00,
2013-04-29 03:23:00,70.0,29.0,29.88,West,279,20.0,29.0,22,0.00,,,0.00,0.000000,,2013-04-29 10:23:00,
2013-04-29 03:32:00,70.0,29.0,29.88,West,279,20.0,29.0,22,0.00,,,0.00,0.000000,,2013-04-29 10:32:00,
2013-04-29 03:42:00,70.0,29.0,29.88,West,279,20.0,29.0,22,0.00,,,0.00,0.000000,,2013-04-29 10:42:00,
2013-04-29 03:52:00,70.0,29.0,29.88,West,279,20.0,29.0,22,0.00,,,0.00,0.000000,,2013-04-29 10:52:00,
2013-04-29 04:21:00,68.0,28.0,29.88,West,279,19.0,27.0,22,0.00,,,0.00,0.000000,,2013-04-29 11:21:00,
2013-04-29 04:32:00,68.0,28.0,29.88,West,279,19.0,27.0,22,0.00,,,0.00,0.000000,,2013-04-29 11:32:00,
2013-04-29 04:41:00,68.0,28.0,29.88,West,279,19.0,27.0,22,0.00,,,0.00,0.000000,,2013-04-29 11:41:00,
2013-04-29 04:52:00,68.0,28.0,29.88,West,279,19.0,27.0,22,0.00,,,0.00,0.000000,,2013-04-29 11:52:00,
2013-04-29 05:22:00,67.0,27.0,29.89,West,276,14.0,27.0,22,0.00,,,0.00,0.000000,,2013-04-29 12:22:00,
2013-04-29 05:31:00,67.0,27.0,29.89,West,276,14.0,27.0,22,0.00,,,0.00,0.000000,,2013-04-29 12:31:00,
2013-04-29 05:41:00,67.0,27.0,29.89,West,276,14.0,27.0,22,0.00,,,0.00,0.000000,,2013-04-29 12:41:00,
2013-04-29 05:51:00,67.0,27.0,29.89,West,276,14.0,27.0,22,0.00,,,0.00,0.000000,,2013-04-29 12:51:00,
2013-04-29 06:21:00,67.0,26.0,29.89,West,276,10.0,26.0,21,0.00,,,0.00,0.000000,,2013-04-29 13:21:00,
2013-04-29 06:31:00,67.0,26.0,29.89,West,276,10.0,26.0,21,0.00,,,0.00,0.000000,,2013-04-29 13:31:00,
2013-04-29 06:42:00,67.0,26.0,29.89,West,276,10.0,26.0,21,0.00,,,0.00,0.000000,,2013-04-29 13:42:00,
2013-04-29 06:52:00,67.0,26.0,29.89,West,276,10.0,26.0,21,0.00,,,0.00,0.000000,,2013-04-29 13:52:00,
2013-04-29 07:21:00,70.0,26.0,29.90,West,276,14.0,20.0,19,0.00,,,0.00,35.000000,,2013-04-29 14:21:00,
2013-04-29 08:21:00,75.0,26.0,29.91,West,276,17.0,21.0,16,0.00,,,-99.99,250.000000,,2013-04-29 15:21:00,
2013-04-29 09:23:00,79.0,20.0,29.91,WNW,283,18.0,26.0,11,0.00,,,0.00,495.000000,,2013-04-29 16:23:00,
2013-04-29 10:22:00,84.0,13.0,29.91,WNW,282,14.0,25.0,7,0.00,,,0.00,723.000000,,2013-04-29 17:22:00,
2013-04-29 11:22:00,88.0,16.0,29.90,WNW,291,12.0,24.0,7,0.00,,,0.00,912.000000,,2013-04-29 18:22:00,
2013-04-29 11:31:00,88.0,16.0,29.90,WNW,291,12.0,24.0,7,0.00,,,0.00,912.000000,,2013-04-29 18:31:00,
2013-04-29 11:41:00,88.0,16.0,29.90,WNW,291,12.0,24.0,7,0.00,,,0.00,912.000000,,2013-04-29 18:41:00,
2013-04-29 11:51:00,88.0,16.0,29.90,WNW,291,12.0,24.0,7,0.00,,,0.00,912.000000,,2013-04-29 18:51:00,
2013-04-29 12:21:00,91.0,15.0,29.89,WNW,287,9.0,23.0,6,0.00,,,0.00,1045.000000,,2013-04-29 19:21:00,
2013-04-29 13:21:00,90.0,26.0,29.87,WNW,283,14.0,24.0,10,0.00,,,0.00,1103.000000,,2013-04-29 20:21:00,
2013-04-29 13:32:00,90.0,26.0,29.87,WNW,283,14.0,24.0,10,0.00,,,0.00,1103.000000,,2013-04-29 20:32:00,
2013-04-29 13:42:00,90.0,26.0,29.87,WNW,283,14.0,24.0,10,0.00,,,0.00,1103.000000,,2013-04-29 20:42:00,
2013-04-29 13:52:00,90.0,26.0,29.87,WNW,283,14.0,24.0,10,0.00,,,0.00,1103.000000,,2013-04-29 20:52:00,
2013-04-29 14:21:00,91.0,29.0,29.85,West,274,16.0,27.0,11,0.00,,,0.00,1092.000000,,2013-04-29 21:21:00,
2013-04-29 14:33:00,91.0,29.0,29.85,West,274,16.0,27.0,11,0.00,,,0.00,1092.000000,,2013-04-29 21:33:00,
2013-04-29 14:42:00,91.0,29.0,29.85,West,274,16.0,27.0,11,0.00,,,0.00,1092.000000,,2013-04-29 21:42:00,
2013-04-29 14:53:00,91.0,29.0,29.85,West,274,16.0,27.0,11,0.00,,,0.00,1092.000000,,2013-04-29 21:53:00,
2013-04-29 15:23:00,92.0,32.0,29.83,SW,235,12.0,30.0,12,0.00,,,0.00,1016.000000,,2013-04-29 22:23:00,
2013-04-29 15:32:00,92.0,32.0,29.83,SW,235,12.0,30.0,12,0.00,,,0.00,1016.000000,,2013-04-29 22:32:00,
2013-04-29 15:42:00,92.0,32.0,29.83,SW,235,12.0,30.0,12,0.00,,,0.00,1016.000000,,2013-04-29 22:42:00,
2013-04-29 15:52:00,92.0,32.0,29.83,SW,235,12.0,30.0,12,0.00,,,0.00,1016.000000,,2013-04-29 22:52:00,
2013-04-29 16:22:00,90.0,36.0,29.81,SW,215,19.0,27.0,15,0.00,,,0.00,875.000000,,2013-04-29 23:22:00,
2013-04-29 16:32:00,90.0,36.0,29.81,SW,215,19.0,27.0,15,0.00,,,0.00,875.000000,,2013-04-29 23:32:00,
2013-04-29 16:42:00,90.0,36.0,29.81,SW,215,19.0,27.0,15,0.00,,,0.00,875.000000,,2013-04-29 23:42:00,
2013-04-29 16:52:00,90.0,36.0,29.81,SW,215,19.0,27.0,15,0.00,,,0.00,875.000000,,2013-04-29 23:52:00,
2013-04-29 17:21:00,88.0,41.0,29.81,SW,222,20.0,29.0,19,0.00,,,0.00,675.000000,,2013-04-30 00:21:00,
2013-04-29 17:32:00,88.0,41.0,29.81,SW,222,20.0,29.0,19,0.00,,,0.00,675.000000,,2013-04-30 00:32:00,
2013-04-29 17:41:00,88.0,41.0,29.81,SW,222,20.0,29.0,19,0.00,,,0.00,675.000000,,2013-04-30 00:41:00,
2013-04-29 17:51:00,88.0,41.0,29.81,SW,222,20.0,29.0,19,0.00,,,0.00,675.000000,,2013-04-30 00:51:00,
2013-04-29 19:21:00,81.0,32.0,29.81,West,264,14.0,31.0,17,-99.99,,,0.00,204.000000,,2013-04-30 02:21:00,
2013-04-29 19:31:00,81.0,32.0,29.81,West,264,14.0,31.0,17,-99.99,,,0.00,204.000000,,2013-04-30 02:31:00,
2013-04-29 19:41:00,81.0,32.0,29.81,West,264,14.0,31.0,17,-99.99,,,0.00,204.000000,,2013-04-30 02:41:00,
2013-04-29 19:51:00,81.0,32.0,29.81,West,264,14.0,31.0,17,-99.99,,,0.00,204.000000,,2013-04-30 02:51:00,
2013-04-29 20:21:00,74.0,36.0,29.81,West,267,16.0,28.0,25,0.00,,,0.00,33.000000,,2013-04-30 03:21:00,
2013-04-29 20:33:00,74.0,36.0,29.81,West,267,16.0,28.0,25,0.00,,,0.00,33.000000,,2013-04-30 03:33:00,
2013-04-29 20:42:00,74.0,36.0,29.81,West,267,16.0,28.0,25,0.00,,,0.00,33.000000,,2013-04-30 03:42:00,
2013-04-29 20:52:00,74.0,36.0,29.81,West,267,16.0,28.0,25,0.00,,,0.00,33.000000,,2013-04-30 03:52:00,
2013-04-29 23:21:00,72.0,41.0,-100.00,West,259,9.0,25.0,32,-99.99,,,0.00,0.000000,,2013-04-30 06:21:00,
2013-04-29 23:31:00,72.0,41.0,-100.00,West,259,9.0,25.0,32,-99.99,,,0.00,0.000000,,2013-04-30 06:31:00,
2013-04-29 23:41:00,72.0,41.0,-100.00,West,259,9.0,25.0,32,-99.99,,,0.00,0.000000,,2013-04-30 06:41:00,
2013-04-29 23:52:00,72.0,41.0,-100.00,West,259,9.0,25.0,32,-99.99,,,0.00,0.000000,,2013-04-30 06:52:00,